Time;durP1;ratioP1;P1;durP2;ratioP2;P2;SDS_P1;SDS_P2;PMS_P1;PMS_P2;Temp;Humidity;BMP_temperature;BMP_pressure;BME280_temperature;BME280_humidity;BME280_pressure;Samples;Min_cycle;Max_cycle;Signal;HPM_P1;HPM_P2
2023/04/02 00:01:42;;;;;;;6.30;2.00;;;;;;;6.71;100.00;95443.13;6211577;23;20338;-94
2023/04/02 00:04:20;;;;;;;2.30;1.00;;;;;;;6.75;100.00;95439.25;6184734;23;20021;-94
2023/04/02 00:06:53;;;;;;;1.97;0.90;;;;;;;6.73;100.00;95446.41;6210286;23;20059;-94
2023/04/02 00:09:30;;;;;;;2.43;0.90;;;;;;;6.66;100.00;95445.38;6185116;23;20028;-94
2023/04/02 00:11:56;;;;;;;4.97;1.50;;;;;;;6.72;100.00;95450.00;6184280;23;20412;-94
2023/04/02 00:14:27;;;;;;;3.37;1.10;;;;;;;6.64;100.00;95447.34;6188929;23;20020;-94
2023/04/02 00:16:55;;;;;;;3.53;1.10;;;;;;;6.66;100.00;95452.41;6205447;23;20028;-94
2023/04/02 00:19:26;;;;;;;2.60;1.07;;;;;;;6.63;100.00;95461.38;6160973;23;20055;-94
2023/04/02 00:21:52;;;;;;;3.00;0.90;;;;;;;6.57;100.00;95454.97;6158665;23;20185;-94
2023/04/02 00:24:20;;;;;;;1.57;0.63;;;;;;;6.49;100.00;95449.69;6183548;23;20024;-94
2023/04/02 00:26:50;;;;;;;3.57;1.00;;;;;;;6.52;100.00;95465.06;6160121;23;20449;-94
2023/04/02 00:29:17;;;;;;;2.30;0.87;;;;;;;6.57;100.00;95467.19;6185375;23;20404;-94
2023/04/02 00:31:49;;;;;;;1.93;0.80;;;;;;;6.51;100.00;95468.66;6185402;23;20013;-94
2023/04/02 00:34:45;;;;;;;2.07;0.80;;;;;;;6.44;100.00;95467.63;6184614;23;20039;-94
2023/04/02 00:37:27;;;;;;;6.13;0.80;;;;;;;6.46;100.00;95464.84;6167024;23;20028;-94
2023/04/02 00:40:14;;;;;;;3.87;0.90;;;;;;;6.49;100.00;95464.53;6185880;23;20033;-94
2023/04/02 00:42:45;;;;;;;2.03;0.90;;;;;;;6.44;100.00;95465.00;6160443;23;20364;-93
2023/04/02 00:45:37;;;;;;;1.40;0.83;;;;;;;6.48;100.00;95470.75;6185252;23;20012;-93
2023/04/02 00:48:25;;;;;;;2.90;1.40;;;;;;;6.47;100.00;95461.25;6180722;23;20507;-94
2023/04/02 00:50:53;;;;;;;4.97;0.70;;;;;;;6.48;100.00;95468.94;6161396;23;20016;-94
2023/04/02 00:53:26;;;;;;;2.27;0.80;;;;;;;6.36;100.00;95463.13;6211286;23;20528;-94
2023/04/02 00:55:52;;;;;;;1.17;0.65;;;;;;;6.48;100.00;95463.72;6186936;23;20013;-94
2023/04/02 00:58:34;;;;;;;3.30;0.80;;;;;;;6.46;100.00;95462.22;6185053;23;20001;-94
2023/04/02 01:01:00;;;;;;;1.60;0.63;;;;;;;6.47;100.00;95461.25;6183601;23;20050;-94
2023/04/02 01:03:33;;;;;;;1.47;0.80;;;;;;;6.49;100.00;95472.38;6209670;23;20059;-94
2023/04/02 01:06:09;;;;;;;3.67;1.03;;;;;;;6.46;100.00;95470.06;6186301;23;20341;-93
2023/04/02 01:09:00;;;;;;;2.67;0.70;;;;;;;6.49;100.00;95464.53;6186195;23;20411;-95
2023/04/02 01:11:35;;;;;;;1.17;0.50;;;;;;;6.50;100.00;95469.59;6161657;23;20013;-94
2023/04/02 01:14:22;;;;;;;1.33;0.63;;;;;;;6.43;100.00;95459.94;6186935;23;20020;-93
2023/04/02 01:16:59;;;;;;;1.53;0.50;;;;;;;6.48;100.00;95468.94;6161125;23;20009;-94
2023/04/02 01:20:07;;;;;;;1.73;0.50;;;;;;;6.42;100.00;95471.34;6161087;23;20040;-94
2023/04/02 01:22:41;;;;;;;3.10;1.10;;;;;;;6.36;100.00;95476.19;6187287;23;20013;-94
2023/04/02 03:38:19;;;;;;;1.23;0.47;;;;;;;6.38;100.00;95578.72;6175970;23;20068;-84
2023/04/02 03:41:25;;;;;;;0.50;0.30;;;;;;;6.35;100.00;95579.03;6173372;23;20024;-85
2023/04/02 03:43:57;;;;;;;0.93;0.43;;;;;;;6.44;100.00;95585.16;6173869;23;20082;-84
2023/04/02 03:46:32;;;;;;;4.00;0.33;;;;;;;6.36;100.00;95583.25;6175872;23;20017;-85
2023/04/02 03:49:06;;;;;;;2.13;0.50;;;;;;;6.34;100.00;95587.84;6174684;23;20020;-84
2023/04/02 03:51:38;;;;;;;1.40;0.50;;;;;;;6.41;100.00;95593.28;6197668;23;20044;-85
2023/04/02 03:54:06;;;;;;;1.27;0.40;;;;;;;6.35;100.00;95589.47;6173236;23;20095;-85
2023/04/02 03:56:38;;;;;;;0.30;0.30;;;;;;;6.33;100.00;95593.19;6173746;23;20013;-82
2023/04/02 03:59:20;;;;;;;2.43;0.50;;;;;;;6.35;100.00;95593.88;6173170;23;20021;-83
2023/04/02 04:02:01;;;;;;;3.47;0.57;;;;;;;6.38;100.00;95597.00;6174859;23;20043;-82
2023/04/02 04:04:29;;;;;;;6.17;1.20;;;;;;;6.42;100.00;95596.72;6174852;23;20057;-82
2023/04/02 04:06:56;;;;;;;1.00;0.40;;;;;;;6.47;100.00;95605.75;6174834;23;20091;-82
2023/04/02 04:09:35;;;;;;;3.40;1.30;;;;;;;6.40;100.00;95611.69;6150114;23;20013;-82
2023/04/02 04:12:22;;;;;;;5.40;1.47;;;;;;;6.32;100.00;95612.44;6200385;23;20012;-82
2023/04/02 04:14:54;;;;;;;2.93;0.70;;;;;;;6.28;100.00;95618.94;6151001;23;20033;-82
2023/04/02 04:17:33;;;;;;;1.40;0.40;;;;;;;6.36;100.00;95622.44;6198736;23;20016;-82
2023/04/02 04:20:13;;;;;;;1.43;0.40;;;;;;;6.39;100.00;95629.16;6175320;23;20031;-82
2023/04/02 04:22:39;;;;;;;2.57;0.70;;;;;;;6.35;100.00;95628.63;6174160;23;20020;-82
2023/04/02 04:25:38;;;;;;;1.33;0.70;;;;;;;6.34;100.00;95632.22;6175052;23;20381;-82
2023/04/02 04:28:25;;;;;;;4.43;0.60;;;;;;;6.40;100.00;95637.81;6175119;23;20119;-81
2023/04/02 04:31:00;;;;;;;2.27;1.00;;;;;;;6.38;100.00;95630.97;6174810;23;20019;-82
2023/04/02 04:33:38;;;;;;;1.70;0.77;;;;;;;6.43;100.00;95634.91;6174919;23;20492;-82
2023/04/02 04:36:27;;;;;;;1.07;0.50;;;;;;;6.42;100.00;95648.94;6189722;23;20038;-83
2023/04/02 04:38:59;;;;;;;2.30;0.57;;;;;;;6.43;100.00;95637.53;6176686;23;20016;-82
2023/04/02 04:41:29;;;;;;;1.13;0.60;;;;;;;6.44;100.00;95654.81;6173660;23;20362;-82
2023/04/02 04:44:05;;;;;;;1.30;0.60;;;;;;;6.44;100.00;95660.91;6174811;23;20028;-82
2023/04/02 04:46:41;;;;;;;1.03;0.60;;;;;;;6.44;100.00;95657.44;6174783;23;20016;-82
2023/04/02 04:49:23;;;;;;;1.43;0.73;;;;;;;6.44;100.00;95660.06;6173278;23;20444;-82
2023/04/02 04:52:18;;;;;;;8.13;1.20;;;;;;;6.49;100.00;95663.88;6174972;23;20016;-82
2023/04/02 04:54:45;;;;;;;1.40;0.70;;;;;;;6.47;100.00;95670.22;6142192;23;20449;-82
2023/04/02 04:57:35;;;;;;;3.07;0.80;;;;;;;6.47;100.00;95673.66;6200583;23;20404;-82
2023/04/02 05:00:18;;;;;;;2.90;1.10;;;;;;;6.36;100.00;95676.47;6149945;23;20012;-82
2023/04/02 05:02:53;;;;;;;2.10;1.20;;;;;;;6.47;100.00;95683.25;6199081;23;20009;-82
2023/04/02 05:05:28;;;;;;;2.80;1.50;;;;;;;6.57;100.00;95684.03;6174210;23;20318;-82
2023/04/02 05:08:04;;;;;;;6.10;1.97;;;;;;;6.57;100.00;95687.47;6198655;23;20036;-82
2023/04/02 05:10:44;;;;;;;3.07;1.00;;;;;;;6.58;100.00;95698.75;6173565;23;20029;-82
2023/04/02 05:13:20;;;;;;;1.93;0.80;;;;;;;6.61;100.00;95691.44;6175028;23;20013;-82
2023/04/02 05:16:01;;;;;;;1.77;0.70;;;;;;;6.55;100.00;95699.03;6175117;23;20017;-80
2023/04/02 05:18:36;;;;;;;2.10;0.90;;;;;;;6.58;100.00;95693.53;6148689;23;20086;-81
2023/04/02 05:21:37;;;;;;;2.67;0.90;;;;;;;6.59;100.00;95701.19;6174371;23;20048;-81
2023/04/02 05:24:38;;;;;;;2.17;0.90;;;;;;;6.58;100.00;95712.63;6174025;23;20040;-81
2023/04/02 05:27:28;;;;;;;2.43;0.97;;;;;;;6.69;100.00;95711.59;6174777;23;20357;-80
2023/04/02 05:30:23;;;;;;;3.57;0.90;;;;;;;6.52;100.00;95715.00;6174658;23;20071;-81
2023/04/02 05:33:27;;;;;;;2.53;0.90;;;;;;;6.55;100.00;95714.72;6133186;23;20017;-81
2023/04/02 05:36:02;;;;;;;1.63;0.68;;;;;;;6.53;100.00;95712.22;6174231;23;20020;-81
2023/04/02 05:38:34;;;;;;;1.63;0.87;;;;;;;6.54;100.00;95718.31;6174287;23;20008;-81
2023/04/02 05:41:22;;;;;;;1.97;0.83;;;;;;;6.57;100.00;95715.38;6173933;23;20082;-81
2023/04/02 05:43:53;;;;;;;1.77;0.63;;;;;;;6.62;100.00;95726.22;6157598;23;20472;-79
2023/04/02 05:46:29;;;;;;;2.00;0.90;;;;;;;6.53;100.00;95727.09;6174281;23;20013;-81
2023/04/02 05:48:58;;;;;;;2.03;0.60;;;;;;;6.48;100.00;95729.34;6174228;23;20044;-81
2023/04/02 05:51:42;;;;;;;1.63;0.67;;;;;;;6.51;100.00;95727.25;6198651;23;20013;-81
2023/04/02 05:54:22;;;;;;;1.77;0.80;;;;;;;6.56;100.00;95732.03;6198111;23;20016;-81
2023/04/02 05:56:56;;;;;;;4.03;1.10;;;;;;;6.51;100.00;95731.66;6174376;23;20012;-81
2023/04/02 05:59:27;;;;;;;4.07;0.90;;;;;;;6.61;100.00;95740.25;6199385;23;20116;-81
2023/04/02 06:02:02;;;;;;;3.92;1.10;;;;;;;6.57;100.00;95742.34;6173562;23;20399;-81
2023/04/02 06:05:32;;;;;;;3.10;0.80;;;;;;;6.49;100.00;95742.25;6174465;23;20012;-80
2023/04/02 06:08:05;;;;;;;1.70;0.93;;;;;;;6.63;100.00;95748.75;6059305;23;20352;-81
2023/04/02 06:10:35;;;;;;;4.78;1.67;;;;;;;6.56;100.00;95752.94;6058620;23;20019;-81
2023/04/02 06:13:07;;;;;;;3.40;1.47;;;;;;;6.62;100.00;95754.97;6095161;23;20020;-81
2023/04/02 06:15:38;;;;;;;5.17;2.13;;;;;;;6.53;100.00;95751.41;6174108;23;20013;-81
2023/04/02 06:18:29;;;;;;;5.10;1.20;;;;;;;6.60;100.00;95764.72;6169166;23;20029;-81
2023/04/02 06:20:57;;;;;;;3.23;1.30;;;;;;;6.59;100.00;95768.31;6173265;23;20122;-81
2023/04/02 06:23:29;;;;;;;2.20;1.13;;;;;;;6.65;100.00;95766.91;6197624;23;20385;-81
2023/04/02 06:26:08;;;;;;;3.67;1.93;;;;;;;6.54;100.00;95773.97;6148762;23;20046;-83
2023/04/02 06:28:45;;;;;;;5.23;1.97;;;;;;;6.58;100.00;95775.31;6173351;23;20021;-83
2023/04/02 06:31:37;;;;;;;2.43;0.87;;;;;;;6.59;100.00;95774.34;6173482;23;20020;-83
2023/04/02 06:34:06;;;;;;;3.30;1.23;;;;;;;6.70;100.00;95781.16;6147638;23;20017;-83
2023/04/02 06:36:33;;;;;;;3.00;1.13;;;;;;;6.72;100.00;95784.47;6174457;23;20021;-83
2023/04/02 06:39:19;;;;;;;2.20;0.90;;;;;;;6.75;100.00;95789.41;6172673;23;20009;-84
2023/04/02 06:42:00;;;;;;;2.10;0.85;;;;;;;6.77;100.00;95792.69;6172653;23;20033;-83
2023/04/02 06:44:45;;;;;;;5.13;1.33;;;;;;;6.78;100.00;95802.19;6173232;23;20028;-83
2023/04/02 06:47:45;;;;;;;3.80;1.60;;;;;;;6.79;100.00;95805.59;6158123;23;20017;-81
2023/04/02 06:50:21;;;;;;;7.87;1.70;;;;;;;6.85;100.00;95811.06;6172955;23;20092;-81
2023/04/02 06:53:03;;;;;;;2.30;1.40;;;;;;;6.88;100.00;95817.00;6148262;23;20056;-81
2023/04/02 06:55:32;;;;;;;2.30;1.10;;;;;;;7.05;100.00;95822.25;6172508;23;20099;-81
2023/04/02 06:57:59;;;;;;;4.93;1.63;;;;;;;6.96;100.00;95814.44;6149484;23;20345;-81
2023/04/02 07:00:47;;;;;;;2.97;1.37;;;;;;;7.03;100.00;95818.13;6149224;23;20404;-81
2023/04/02 07:03:24;;;;;;;2.92;1.42;;;;;;;7.03;100.00;95824.16;6195468;23;20017;-82
2023/04/02 07:05:52;;;;;;;3.37;1.97;;;;;;;6.97;100.00;95829.16;6148803;23;20013;-81
2023/04/02 07:08:18;;;;;;;3.93;1.27;;;;;;;6.97;100.00;95827.38;6172947;23;20013;-81
2023/04/02 07:10:45;;;;;;;3.17;1.67;;;;;;;7.09;100.00;95838.44;6172208;23;20017;-81
2023/04/02 07:13:20;;;;;;;3.10;1.83;;;;;;;7.12;100.00;95837.34;6172950;23;20009;-80
2023/04/02 07:15:49;;;;;;;4.67;1.73;;;;;;;7.16;100.00;95842.13;6171635;23;20013;-81
2023/04/02 07:18:25;;;;;;;4.33;1.50;;;;;;;7.22;100.00;95844.16;6149238;23;20019;-81
2023/04/02 07:20:53;;;;;;;3.10;1.50;;;;;;;7.30;100.00;95846.84;6171930;23;20092;-81
2023/04/02 07:23:22;;;;;;;3.57;1.90;;;;;;;7.31;100.00;95851.13;6199253;23;20346;-81
2023/04/02 07:25:49;;;;;;;5.07;2.30;;;;;;;7.25;100.00;95856.94;6197485;23;20017;-81
2023/04/02 07:28:16;;;;;;;7.10;3.27;;;;;;;7.25;100.00;95864.78;6147967;23;20017;-81
2023/04/02 07:30:42;;;;;;;13.53;6.53;;;;;;;7.31;100.00;95861.56;6147439;23;20017;-81
2023/04/02 07:33:12;;;;;;;13.00;5.33;;;;;;;7.29;100.00;95873.16;6172164;23;20071;-81
2023/04/02 07:35:38;;;;;;;9.30;2.97;;;;;;;7.28;100.00;95869.72;6173695;23;20027;-81
2023/04/02 07:38:03;;;;;;;3.47;2.00;;;;;;;7.30;100.00;95870.38;6200053;23;20417;-80
2023/04/02 07:40:29;;;;;;;4.23;2.20;;;;;;;7.32;100.00;95875.47;6174576;23;20235;-81
2023/04/02 07:42:55;;;;;;;3.43;2.03;;;;;;;7.37;100.00;95877.63;6174087;23;20025;-81
2023/04/02 07:45:20;;;;;;;4.50;2.07;;;;;;;7.48;100.00;95877.44;6175540;23;20031;-81
2023/04/02 07:47:46;;;;;;;5.17;2.27;;;;;;;7.37;100.00;95872.41;6149375;23;20016;-81
2023/04/02 07:50:12;;;;;;;12.80;4.87;;;;;;;7.42;100.00;95884.06;6199342;23;20084;-80
2023/04/02 07:52:41;;;;;;;6.50;2.27;;;;;;;7.35;100.00;95890.88;6199813;23;20507;-80
2023/04/02 07:55:12;;;;;;;4.47;1.77;;;;;;;7.48;100.00;95888.72;6173877;23;20516;-80
2023/04/02 07:57:47;;;;;;;3.57;2.10;;;;;;;7.36;100.00;95892.50;6175355;23;20009;-80
2023/04/02 08:00:14;;;;;;;6.07;2.00;;;;;;;7.46;100.00;95893.25;6174487;23;20055;-80
2023/04/02 08:02:39;;;;;;;3.37;1.77;;;;;;;7.60;100.00;95906.81;6174137;23;20020;-83
2023/04/02 08:05:05;;;;;;;4.90;2.23;;;;;;;7.68;100.00;95902.50;6199908;23;20021;-82
2023/04/02 08:07:31;;;;;;;4.83;1.97;;;;;;;7.74;100.00;95899.25;6198337;23;20021;-83
2023/04/02 08:09:56;;;;;;;4.60;1.33;;;;;;;7.58;100.00;95906.97;6196532;23;20040;-82
2023/04/02 08:12:22;;;;;;;3.80;1.60;;;;;;;7.54;100.00;95916.06;6146912;23;20500;-83
2023/04/02 08:14:48;;;;;;;4.43;1.70;;;;;;;7.50;100.00;95907.69;6173234;23;20334;-83
2023/04/02 08:17:13;;;;;;;6.83;2.00;;;;;;;7.60;100.00;95910.25;6174041;23;20027;-83
2023/04/02 08:19:39;;;;;;;4.30;1.40;;;;;;;7.64;100.00;95908.16;6172974;23;20012;-83
2023/04/02 08:22:04;;;;;;;4.10;1.43;;;;;;;7.70;100.00;95918.84;6172706;23;20301;-82
2023/04/02 08:24:30;;;;;;;3.73;1.70;;;;;;;7.75;100.00;95919.22;6173507;23;20028;-83
2023/04/02 08:26:56;;;;;;;3.60;1.90;;;;;;;7.82;100.00;95924.69;6172788;23;20039;-83
2023/04/02 08:29:21;;;;;;;3.57;1.87;;;;;;;7.94;100.00;95925.28;6198813;23;20827;-82
2023/04/02 08:31:47;;;;;;;7.07;1.70;;;;;;;8.04;100.00;95934.69;6174225;23;20916;-83
2023/04/02 08:34:13;;;;;;;5.43;2.30;;;;;;;7.94;100.00;95933.13;6175565;23;20199;-83
2023/04/02 08:36:42;;;;;;;5.80;2.40;;;;;;;8.02;100.00;95944.50;6149720;23;20020;-83
2023/04/02 08:39:11;;;;;;;3.50;1.50;;;;;;;8.04;100.00;95941.72;6173656;23;20385;-83
2023/04/02 08:41:44;;;;;;;4.27;1.77;;;;;;;7.87;100.00;95947.81;6197480;23;20017;-82
2023/04/02 08:44:13;;;;;;;4.90;1.90;;;;;;;8.15;100.00;95954.63;6173300;23;20017;-83
2023/04/02 08:46:50;;;;;;;4.03;1.80;;;;;;;8.14;100.00;95957.38;6148993;23;20023;-83
2023/04/02 08:49:25;;;;;;;5.17;2.03;;;;;;;8.12;100.00;95956.72;6174260;23;20525;-82
2023/04/02 08:51:51;;;;;;;6.23;1.90;;;;;;;8.05;100.00;95956.50;6173046;23;20027;-83
2023/04/02 08:54:25;;;;;;;4.43;2.20;;;;;;;8.15;100.00;95957.22;6175520;23;20008;-83
2023/04/02 09:00:09;;;;;;;4.13;1.83;;;;;;;8.14;100.00;95967.84;6186209;23;20016;-91
2023/04/02 09:02:45;;;;;;;3.80;1.90;;;;;;;8.19;100.00;95974.28;6201007;23;20011;-89
2023/04/02 09:05:30;;;;;;;4.80;1.80;;;;;;;8.02;100.00;95978.56;6190737;23;20013;-88
2023/04/02 09:08:04;;;;;;;5.43;1.80;;;;;;;8.06;100.00;95975.66;6185601;23;20013;-89
2023/04/02 09:10:33;;;;;;;;;;;;;;;8.08;100.00;95985.00;6211362;23;20016;-89
2023/04/02 09:13:36;;;;;;;9.00;3.90;;;;;;;8.20;100.00;95981.16;6185167;23;19994;-90
2023/04/02 09:16:13;;;;;;;7.23;2.40;;;;;;;8.10;100.00;95996.13;6185002;23;20039;-87
2023/04/02 09:18:40;;;;;;;6.63;2.90;;;;;;;8.07;100.00;95996.44;6184927;23;20033;-88
2023/04/02 09:21:35;;;;;;;11.27;2.90;;;;;;;8.18;100.00;95993.59;6209103;23;20016;-88
2023/04/02 09:24:01;;;;;;;5.77;2.00;;;;;;;8.12;100.00;95999.44;6184342;23;20012;-87
2023/04/02 09:26:32;;;;;;;5.10;2.23;;;;;;;8.20;100.00;95996.88;6183092;23;20008;-88
2023/04/02 09:29:07;;;;;;;4.77;1.93;;;;;;;8.09;100.00;95999.72;6157633;23;20119;-88
2023/04/02 09:32:06;;;;;;;2.97;1.60;;;;;;;8.16;100.00;96011.25;6159213;23;20345;-90
2023/04/02 09:34:34;;;;;;;4.07;1.63;;;;;;;8.22;100.00;96010.66;6177470;23;20078;-90
2023/04/02 09:37:28;;;;;;;5.20;2.47;;;;;;;8.17;100.00;96007.66;6202708;23;20032;-85
2023/04/02 09:40:10;;;;;;;6.75;3.00;;;;;;;8.25;100.00;96010.38;6179868;23;20013;-90
2023/04/02 09:42:40;;;;;;;13.27;7.40;;;;;;;8.42;100.00;96021.03;6183378;23;20027;-88
2023/04/02 09:45:29;;;;;;;6.57;2.90;;;;;;;8.45;100.00;96018.06;6184334;23;20107;-89
2023/04/02 09:47:56;;;;;;;3.17;1.70;;;;;;;8.57;100.00;96027.34;6171348;23;20060;-89
2023/04/02 09:50:30;;;;;;;4.87;1.50;;;;;;;8.57;100.00;96021.28;6208894;23;20013;-89
2023/04/02 09:52:56;;;;;;;4.77;1.73;;;;;;;8.74;100.00;96026.50;6207540;23;20020;-89
2023/04/02 09:55:33;;;;;;;3.17;1.77;;;;;;;8.74;100.00;96026.50;6182723;23;20072;-91
2023/04/02 09:58:20;;;;;;;6.07;2.50;;;;;;;8.74;100.00;96033.53;6181947;23;20422;-88
2023/04/02 10:00:58;;;;;;;6.87;3.67;;;;;;;8.94;100.00;96028.94;6182782;23;20116;-88
2023/04/02 10:03:27;;;;;;;10.90;6.20;;;;;;;9.18;100.00;96031.69;6181396;23;20016;-88
2023/04/02 10:06:09;;;;;;;5.17;2.33;;;;;;;9.14;100.00;96035.63;6183852;23;20031;-83
2023/04/02 10:08:37;;;;;;;5.20;2.63;;;;;;;8.90;100.00;96028.41;6177197;23;20357;-81
2023/04/02 10:11:30;;;;;;;4.33;1.67;;;;;;;8.89;100.00;96034.66;6178675;23;20347;-80
2023/04/02 10:14:01;;;;;;;7.22;2.17;;;;;;;8.95;100.00;96043.69;6177309;23;20020;-83
2023/04/02 10:16:44;;;;;;;2.27;1.20;;;;;;;8.99;100.00;96039.81;6153393;23;20032;-80
2023/04/02 10:19:29;;;;;;;2.33;1.30;;;;;;;9.01;100.00;96042.25;6177611;23;20437;-81
2023/04/02 10:21:58;;;;;;;3.17;1.73;;;;;;;9.10;100.00;96052.66;6153588;23;20013;-81
2023/04/02 10:24:27;;;;;;;3.80;1.80;;;;;;;9.29;100.00;96050.78;6204786;23;20044;-81
2023/04/02 10:27:01;;;;;;;2.20;1.40;;;;;;;9.02;100.00;96052.59;6178514;23;20067;-82
2023/04/02 10:29:53;;;;;;;3.53;1.57;;;;;;;9.13;100.00;96049.72;6154033;23;20724;-81
2023/04/02 10:32:53;;;;;;;2.63;1.50;;;;;;;9.23;100.00;96056.66;6153215;23;20047;-82
2023/04/02 10:35:51;;;;;;;4.63;1.80;;;;;;;9.35;100.00;96056.22;6154615;23;20021;-81
2023/04/02 10:38:58;;;;;;;7.17;3.33;;;;;;;9.32;100.00;96053.94;6153124;23;20009;-81
2023/04/02 10:41:45;;;;;;;8.20;3.30;;;;;;;9.27;100.00;96058.00;6158278;23;20021;-80
2023/04/02 10:44:45;;;;;;;7.57;3.30;;;;;;;9.38;100.00;96057.72;6177745;23;20357;-80
2023/04/02 10:47:48;;;;;;;8.07;3.03;;;;;;;9.10;100.00;96057.06;6179209;23;20076;-82
2023/04/02 10:50:37;;;;;;;7.93;3.25;;;;;;;9.00;100.00;96072.09;6203254;23;20516;-83
2023/04/02 10:56:28;;;;;;;3.80;1.63;;;;;;;8.98;100.00;96082.72;6204586;23;20624;-83
2023/04/02 10:58:53;;;;;;;2.73;1.50;;;;;;;9.05;100.00;96086.38;6179118;23;20101;-83
2023/04/02 11:01:27;;;;;;;1.40;1.00;;;;;;;9.14;100.00;96085.47;6155054;23;20017;-82
2023/04/02 11:04:04;;;;;;;9.00;4.63;;;;;;;8.96;100.00;96082.06;6177907;23;20017;-82
2023/04/02 11:06:42;;;;;;;20.83;14.07;;;;;;;9.24;100.00;96085.34;6203902;23;20021;-83
2023/04/02 11:09:17;;;;;;;8.10;5.03;;;;;;;9.06;100.00;96090.66;6178945;23;20024;-83
2023/04/02 11:11:45;;;;;;;3.93;1.47;;;;;;;8.98;100.00;96085.34;6178456;23;20009;-81
2023/04/02 11:14:25;;;;;;;5.50;2.57;;;;;;;9.00;100.00;96087.81;6202551;23;20445;-81
2023/04/02 11:16:53;;;;;;;9.50;3.03;;;;;;;8.84;100.00;96093.75;6179965;23;20013;-82
2023/04/02 11:19:30;;;;;;;7.97;3.13;;;;;;;8.76;100.00;96101.56;6178164;23;20020;-82
2023/04/02 11:21:56;;;;;;;2.43;1.40;;;;;;;8.89;100.00;96107.25;6177361;23;20021;-82
2023/04/02 11:24:23;;;;;;;2.37;1.40;;;;;;;9.12;100.00;96104.94;6148744;23;20303;-82
2023/04/02 11:26:50;;;;;;;1.60;1.00;;;;;;;9.32;100.00;96113.44;6147532;23;20087;-81
2023/04/02 11:29:18;;;;;;;2.67;1.10;;;;;;;9.43;100.00;96105.34;6173001;23;20021;-82
2023/04/02 11:31:45;;;;;;;8.03;4.57;;;;;;;9.77;100.00;96110.59;6169426;23;20024;-81
2023/04/02 11:34:48;;;;;;;14.77;10.70;;;;;;;10.08;100.00;96108.25;6196434;23;20087;-81
2023/04/02 11:37:35;;;;;;;6.90;4.25;;;;;;;9.88;100.00;96112.13;6198379;23;20016;-81
2023/04/02 11:40:10;;;;;;;4.77;2.00;;;;;;;10.27;100.00;96109.00;6148481;23;20023;-81
2023/04/02 11:42:39;;;;;;;2.90;1.27;;;;;;;10.46;100.00;96110.50;6146493;23;20197;-82
2023/04/02 11:45:23;;;;;;;2.33;1.27;;;;;;;10.61;100.00;96112.34;6173522;23;20047;-82
2023/04/02 11:48:00;;;;;;;;;;;;;;;10.37;100.00;96114.94;6148383;23;20112;-81
2023/04/02 11:50:38;;;;;;;1.87;0.80;;;;;;;10.44;100.00;96113.31;6148446;23;19927;-81
2023/04/02 11:53:13;;;;;;;3.87;0.90;;;;;;;10.67;100.00;96115.34;6171828;23;20532;-81
2023/04/02 11:55:43;;;;;;;1.17;0.70;;;;;;;10.66;100.00;96116.28;6198442;23;20116;-81
2023/04/02 11:58:31;;;;;;;5.13;0.77;;;;;;;10.80;100.00;96110.41;6198350;23;20079;-81
2023/04/02 12:01:24;;;;;;;1.57;0.70;;;;;;;10.72;100.00;96115.66;6172055;23;20036;-81
2023/04/02 12:04:22;;;;;;;2.72;0.73;;;;;;;10.93;100.00;96108.13;6197804;23;20008;-81
2023/04/02 12:07:06;;;;;;;4.10;1.33;;;;;;;10.93;100.00;96110.75;6171970;23;20036;-82
2023/04/02 12:09:48;;;;;;;1.90;0.83;;;;;;;11.09;100.00;96113.34;6148893;23;20020;-81
2023/04/02 12:12:37;;;;;;;2.47;1.33;;;;;;;11.37;100.00;96107.75;6170856;23;20024;-81
2023/04/02 12:15:45;;;;;;;2.10;0.93;;;;;;;11.50;100.00;96105.44;6149409;23;20072;-82
2023/04/02 12:18:10;;;;;;;3.83;2.50;;;;;;;11.70;100.00;96105.03;6172315;23;20400;-81
2023/04/02 12:20:41;;;;;;;10.70;6.83;;;;;;;11.98;100.00;96106.28;6173668;23;20441;-81
2023/04/02 12:23:17;;;;;;;8.07;4.50;;;;;;;11.60;100.00;96114.94;6149699;23;20361;-82
2023/04/02 12:25:49;;;;;;;2.93;1.33;;;;;;;11.84;100.00;96112.28;6175350;23;20009;-82
2023/04/02 12:28:19;;;;;;;1.97;1.00;;;;;;;12.32;100.00;96109.59;6174601;23;20345;-82
2023/04/02 12:30:46;;;;;;;1.27;0.70;;;;;;;12.49;100.00;96104.03;6149746;23;20017;-82
2023/04/02 12:33:21;;;;;;;1.37;0.87;;;;;;;12.84;100.00;96112.38;6199771;23;20032;-81
2023/04/02 12:35:49;;;;;;;3.73;1.60;;;;;;;12.58;100.00;96117.19;6150380;23;20017;-82
2023/04/02 12:38:21;;;;;;;3.17;1.37;;;;;;;10.95;100.00;96124.53;6150689;23;20396;-81
2023/04/02 12:40:58;;;;;;;0.70;0.70;;;;;;;10.97;100.00;96129.66;6149122;23;20334;-82
2023/04/02 12:43:29;;;;;;;1.07;0.80;;;;;;;10.33;100.00;96140.72;6174377;23;20406;-82
2023/04/02 12:46:00;;;;;;;0.70;0.60;;;;;;;9.98;100.00;96157.47;6173883;23;20094;-81
2023/04/02 12:48:28;;;;;;;1.13;0.70;;;;;;;9.82;100.00;96157.38;6176072;23;20471;-82
2023/04/02 12:50:55;;;;;;;1.47;0.60;;;;;;;9.65;100.00;96159.91;6174622;23;20091;-82
2023/04/02 12:53:30;;;;;;;61.33;41.57;;;;;;;9.71;100.00;96170.78;6176951;23;20382;-81
2023/04/02 12:56:03;;;;;;;3.40;2.20;;;;;;;9.67;100.00;96172.91;6180374;23;20025;-81
2023/04/02 12:58:57;;;;;;;1.40;1.00;;;;;;;9.52;100.00;96174.44;6179844;23;20013;-81
2023/04/02 13:01:32;;;;;;;1.50;0.63;;;;;;;9.23;100.00;96183.44;6174846;23;20008;-82
2023/04/02 13:04:05;;;;;;;0.77;0.50;;;;;;;9.00;100.00;96183.06;6199590;23;20021;-82
2023/04/02 13:06:32;;;;;;;1.80;0.80;;;;;;;8.87;100.00;96193.94;6175485;23;20039;-81
2023/04/02 13:09:00;;;;;;;2.37;0.93;;;;;;;8.89;100.00;96197.25;6176612;23;20009;-82
2023/04/02 13:11:40;;;;;;;1.13;0.87;;;;;;;8.93;100.00;96198.59;6169565;23;20109;-82
2023/04/02 13:14:25;;;;;;;1.87;1.03;;;;;;;8.95;100.00;96195.78;6173088;23;20027;-82
2023/04/02 13:16:51;;;;;;;7.23;4.17;;;;;;;9.08;100.00;96204.13;6173850;23;20544;-82
2023/04/02 13:19:22;;;;;;;4.37;2.03;;;;;;;9.13;100.00;96201.88;6172793;23;20009;-82
2023/04/02 13:21:48;;;;;;;3.73;1.90;;;;;;;8.96;100.00;96195.66;6197462;23;20096;-81
2023/04/02 13:24:20;;;;;;;2.50;1.87;;;;;;;8.89;100.00;96201.66;6198095;23;20021;-82
2023/04/02 13:26:49;;;;;;;3.33;1.63;;;;;;;8.91;100.00;96215.44;6173501;23;20024;-82
2023/04/02 13:29:20;;;;;;;2.73;1.40;;;;;;;8.58;100.00;96214.28;6149182;23;20047;-82
2023/04/02 13:31:46;;;;;;;3.37;2.03;;;;;;;8.64;100.00;96217.13;6170943;23;20025;-83
2023/04/02 13:34:12;;;;;;;3.37;1.97;;;;;;;8.46;100.00;96217.09;6173865;23;20013;-82
2023/04/02 13:36:38;;;;;;;3.57;2.07;;;;;;;8.54;100.00;96221.59;6198114;23;20424;-83
2023/04/02 13:39:04;;;;;;;3.13;1.70;;;;;;;8.57;100.00;96215.25;6174020;23;20079;-82
2023/04/02 13:41:33;;;;;;;3.13;1.73;;;;;;;8.58;100.00;96217.72;6172416;23;20015;-82
2023/04/02 13:44:02;;;;;;;2.93;1.60;;;;;;;8.62;100.00;96224.34;6173898;23;20104;-82
2023/04/02 13:46:34;;;;;;;3.33;1.63;;;;;;;8.62;100.00;96231.38;6173904;23;20005;-82
2023/04/02 13:49:00;;;;;;;2.60;1.83;;;;;;;8.70;100.00;96226.22;6172853;23;20107;-81
2023/04/02 13:51:38;;;;;;;3.37;1.97;;;;;;;8.56;100.00;96237.22;6173375;23;20024;-81
2023/04/02 13:54:42;;;;;;;2.60;1.73;;;;;;;8.63;100.00;96233.84;6198489;23;20064;-81
2023/04/02 13:57:08;;;;;;;3.10;1.92;;;;;;;8.54;100.00;96241.75;6146016;23;20063;-82
2023/04/02 13:59:34;;;;;;;2.07;1.60;;;;;;;8.56;100.00;96251.13;6173256;23;20005;-82
2023/04/02 14:02:07;;;;;;;2.13;1.20;;;;;;;8.33;100.00;96245.41;6172414;23;20040;-81
2023/04/02 14:04:39;;;;;;;4.93;2.57;;;;;;;8.28;100.00;96250.25;6198757;23;20397;-81
2023/04/02 14:07:42;;;;;;;3.30;1.53;;;;;;;8.28;100.00;96250.25;6198225;23;20013;-81
2023/04/02 14:10:29;;;;;;;2.30;1.40;;;;;;;8.25;100.00;96261.03;6149894;23;20096;-82
2023/04/02 14:13:19;;;;;;;1.77;1.10;;;;;;;8.26;100.00;96262.69;6146426;23;20476;-82
2023/04/02 14:16:10;;;;;;;4.53;1.80;;;;;;;8.54;100.00;96260.94;6176459;23;20017;-81
2023/04/02 14:18:53;;;;;;;3.87;1.63;;;;;;;8.37;100.00;96257.25;6154962;23;20029;-81
2023/04/02 14:21:30;;;;;;;1.95;1.23;;;;;;;8.39;100.00;96257.16;6202152;23;20021;-82
2023/04/02 14:24:16;;;;;;;1.63;0.90;;;;;;;8.37;100.00;96265.09;6155224;23;20025;-81
2023/04/02 14:26:42;;;;;;;2.17;1.13;;;;;;;8.45;100.00;96264.41;6179062;23;20016;-81
2023/04/02 14:29:12;;;;;;;1.93;1.10;;;;;;;8.29;100.00;96266.81;6179503;23;20491;-81
2023/04/02 14:31:54;;;;;;;1.20;0.97;;;;;;;8.15;100.00;96268.94;6154280;23;20016;-82
2023/04/02 14:34:45;;;;;;;1.97;0.90;;;;;;;8.24;100.00;96268.06;6175160;23;20104;-82